sensor_id;sensor_type;location;lat;lon;timestamp;temperature;humidity
11055;DHT22;5580;50.106;8.702;2023-07-31T00:01:46;20.80;99.90
11055;DHT22;5580;50.106;8.702;2023-07-31T00:04:11;20.80;99.90
11055;DHT22;5580;50.106;8.702;2023-07-31T00:06:37;20.80;99.90
11055;DHT22;5580;50.106;8.702;2023-07-31T00:09:02;20.80;99.90
11055;DHT22;5580;50.106;8.702;2023-07-31T00:11:28;20.70;99.90
11055;DHT22;5580;50.106;8.702;2023-07-31T00:13:53;20.70;99.90
11055;DHT22;5580;50.106;8.702;2023-07-31T00:16:19;20.70;99.90
11055;DHT22;5580;50.106;8.702;2023-07-31T00:18:45;20.60;99.90
11055;DHT22;5580;50.106;8.702;2023-07-31T00:21:10;20.60;99.90
11055;DHT22;5580;50.106;8.702;2023-07-31T00:23:36;20.60;99.90
11055;DHT22;5580;50.106;8.702;2023-07-31T00:26:01;20.60;99.90
11055;DHT22;5580;50.106;8.702;2023-07-31T00:28:27;20.60;99.90
11055;DHT22;5580;50.106;8.702;2023-07-31T00:30:54;20.60;99.90
11055;DHT22;5580;50.106;8.702;2023-07-31T00:33:19;20.60;99.90
11055;DHT22;5580;50.106;8.702;2023-07-31T00:35:45;20.60;99.90
11055;DHT22;5580;50.106;8.702;2023-07-31T00:38:10;20.60;99.90
11055;DHT22;5580;50.106;8.702;2023-07-31T00:40:37;20.50;99.90
11055;DHT22;5580;50.106;8.702;2023-07-31T00:43:03;20.50;99.90
11055;DHT22;5580;50.106;8.702;2023-07-31T00:45:29;20.50;99.90
11055;DHT22;5580;50.106;8.702;2023-07-31T00:47:55;20.40;99.90
11055;DHT22;5580;50.106;8.702;2023-07-31T00:50:23;20.40;99.90
11055;DHT22;5580;50.106;8.702;2023-07-31T00:52:49;20.50;99.90
11055;DHT22;5580;50.106;8.702;2023-07-31T00:55:15;20.40;99.90
11055;DHT22;5580;50.106;8.702;2023-07-31T00:57:41;20.40;99.90
11055;DHT22;5580;50.106;8.702;2023-07-31T01:00:08;20.40;99.90
11055;DHT22;5580;50.106;8.702;2023-07-31T01:02:35;20.40;99.90
11055;DHT22;5580;50.106;8.702;2023-07-31T01:05:02;20.30;99.90
11055;DHT22;5580;50.106;8.702;2023-07-31T01:10:15;20.30;99.90
11055;DHT22;5580;50.106;8.702;2023-07-31T01:12:42;20.30;99.90
11055;DHT22;5580;50.106;8.702;2023-07-31T01:15:09;20.30;99.90
11055;DHT22;5580;50.106;8.702;2023-07-31T01:17:39;20.30;99.90
11055;DHT22;5580;50.106;8.702;2023-07-31T01:20:20;20.30;99.90
11055;DHT22;5580;50.106;8.702;2023-07-31T01:26:11;20.30;99.90
11055;DHT22;5580;50.106;8.702;2023-07-31T01:29:00;20.30;99.90
11055;DHT22;5580;50.106;8.702;2023-07-31T01:31:29;20.30;99.90
11055;DHT22;5580;50.106;8.702;2023-07-31T01:33:58;20.30;99.90
11055;DHT22;5580;50.106;8.702;2023-07-31T01:36:25;20.30;99.90
11055;DHT22;5580;50.106;8.702;2023-07-31T01:38:51;20.20;99.90
11055;DHT22;5580;50.106;8.702;2023-07-31T01:41:17;20.20;99.90
11055;DHT22;5580;50.106;8.702;2023-07-31T01:43:44;20.20;99.90
11055;DHT22;5580;50.106;8.702;2023-07-31T01:46:09;20.20;99.90
11055;DHT22;5580;50.106;8.702;2023-07-31T01:48:35;20.20;99.90
11055;DHT22;5580;50.106;8.702;2023-07-31T01:51:02;20.10;99.90
11055;DHT22;5580;50.106;8.702;2023-07-31T01:53:29;20.10;99.90
11055;DHT22;5580;50.106;8.702;2023-07-31T01:55:55;20.10;99.90
11055;DHT22;5580;50.106;8.702;2023-07-31T01:58:20;20.10;99.90
11055;DHT22;5580;50.106;8.702;2023-07-31T02:00:46;20.10;99.90
11055;DHT22;5580;50.106;8.702;2023-07-31T02:03:12;20.10;99.90
11055;DHT22;5580;50.106;8.702;2023-07-31T02:05:44;20.10;99.90
11055;DHT22;5580;50.106;8.702;2023-07-31T02:08:10;20.20;99.90
11055;DHT22;5580;50.106;8.702;2023-07-31T02:10:35;20.10;99.90
11055;DHT22;5580;50.106;8.702;2023-07-31T02:13:01;20.10;99.90
11055;DHT22;5580;50.106;8.702;2023-07-31T02:15:31;20.10;99.90
11055;DHT22;5580;50.106;8.702;2023-07-31T02:17:57;20.10;99.90
11055;DHT22;5580;50.106;8.702;2023-07-31T02:20:23;20.10;99.90
11055;DHT22;5580;50.106;8.702;2023-07-31T02:22:48;20.20;99.90
11055;DHT22;5580;50.106;8.702;2023-07-31T02:25:14;20.10;99.90
11055;DHT22;5580;50.106;8.702;2023-07-31T02:27:40;20.10;99.90
11055;DHT22;5580;50.106;8.702;2023-07-31T02:30:06;20.10;99.90
11055;DHT22;5580;50.106;8.702;2023-07-31T02:32:31;20.20;99.90
11055;DHT22;5580;50.106;8.702;2023-07-31T02:34:57;20.20;99.90
11055;DHT22;5580;50.106;8.702;2023-07-31T02:37:23;20.20;99.90
11055;DHT22;5580;50.106;8.702;2023-07-31T02:39:48;20.20;99.90
11055;DHT22;5580;50.106;8.702;2023-07-31T02:42:14;20.20;99.90
11055;DHT22;5580;50.106;8.702;2023-07-31T02:44:40;20.20;99.90
11055;DHT22;5580;50.106;8.702;2023-07-31T02:47:06;20.10;99.90
11055;DHT22;5580;50.106;8.702;2023-07-31T02:49:31;20.10;99.90
11055;DHT22;5580;50.106;8.702;2023-07-31T02:51:57;20.20;99.90
11055;DHT22;5580;50.106;8.702;2023-07-31T02:54:22;20.20;99.90
11055;DHT22;5580;50.106;8.702;2023-07-31T02:56:48;20.10;99.90
11055;DHT22;5580;50.106;8.702;2023-07-31T02:59:14;20.10;99.90
11055;DHT22;5580;50.106;8.702;2023-07-31T03:01:40;20.10;99.90
11055;DHT22;5580;50.106;8.702;2023-07-31T03:04:07;20.10;99.90
11055;DHT22;5580;50.106;8.702;2023-07-31T03:06:33;20.20;99.90
11055;DHT22;5580;50.106;8.702;2023-07-31T03:08:59;20.20;99.90
11055;DHT22;5580;50.106;8.702;2023-07-31T03:11:25;20.20;99.90
11055;DHT22;5580;50.106;8.702;2023-07-31T03:13:50;20.10;99.90
11055;DHT22;5580;50.106;8.702;2023-07-31T03:16:16;20.10;99.90
11055;DHT22;5580;50.106;8.702;2023-07-31T03:18:41;20.10;99.90
11055;DHT22;5580;50.106;8.702;2023-07-31T03:21:07;20.10;99.90
11055;DHT22;5580;50.106;8.702;2023-07-31T03:23:32;20.10;99.90
11055;DHT22;5580;50.106;8.702;2023-07-31T03:26:03;20.10;99.90
11055;DHT22;5580;50.106;8.702;2023-07-31T03:28:29;20.00;99.90
11055;DHT22;5580;50.106;8.702;2023-07-31T03:30:55;20.00;99.90
11055;DHT22;5580;50.106;8.702;2023-07-31T03:33:21;20.00;99.90
11055;DHT22;5580;50.106;8.702;2023-07-31T03:35:46;19.90;99.90
11055;DHT22;5580;50.106;8.702;2023-07-31T03:38:12;19.90;99.90
11055;DHT22;5580;50.106;8.702;2023-07-31T03:40:37;19.90;99.90
11055;DHT22;5580;50.106;8.702;2023-07-31T03:43:03;19.90;99.90
11055;DHT22;5580;50.106;8.702;2023-07-31T03:45:28;20.00;99.90
11055;DHT22;5580;50.106;8.702;2023-07-31T03:47:54;20.00;99.90
11055;DHT22;5580;50.106;8.702;2023-07-31T03:50:20;20.00;99.90
11055;DHT22;5580;50.106;8.702;2023-07-31T03:52:47;20.00;99.90
11055;DHT22;5580;50.106;8.702;2023-07-31T03:55:12;19.90;99.90
11055;DHT22;5580;50.106;8.702;2023-07-31T03:57:38;19.90;99.90
11055;DHT22;5580;50.106;8.702;2023-07-31T04:00:04;19.80;99.90
11055;DHT22;5580;50.106;8.702;2023-07-31T04:02:30;19.80;99.90
11055;DHT22;5580;50.106;8.702;2023-07-31T04:04:55;19.80;99.90
11055;DHT22;5580;50.106;8.702;2023-07-31T04:07:21;19.80;99.90
11055;DHT22;5580;50.106;8.702;2023-07-31T04:09:46;19.80;99.90
11055;DHT22;5580;50.106;8.702;2023-07-31T04:12:12;19.80;99.90
11055;DHT22;5580;50.106;8.702;2023-07-31T04:14:37;19.70;99.90
11055;DHT22;5580;50.106;8.702;2023-07-31T04:17:03;19.80;99.90
11055;DHT22;5580;50.106;8.702;2023-07-31T04:19:28;19.80;99.90
11055;DHT22;5580;50.106;8.702;2023-07-31T04:21:54;19.80;99.90
11055;DHT22;5580;50.106;8.702;2023-07-31T04:24:20;19.80;99.90
11055;DHT22;5580;50.106;8.702;2023-07-31T04:26:50;19.80;99.90
11055;DHT22;5580;50.106;8.702;2023-07-31T04:29:16;19.80;99.90
11055;DHT22;5580;50.106;8.702;2023-07-31T04:31:42;19.80;99.90
11055;DHT22;5580;50.106;8.702;2023-07-31T04:34:07;19.80;99.90
11055;DHT22;5580;50.106;8.702;2023-07-31T04:36:34;19.90;99.90
11055;DHT22;5580;50.106;8.702;2023-07-31T04:38:59;19.90;99.90
11055;DHT22;5580;50.106;8.702;2023-07-31T04:41:25;19.90;99.90
11055;DHT22;5580;50.106;8.702;2023-07-31T04:43:51;19.90;99.90
11055;DHT22;5580;50.106;8.702;2023-07-31T04:46:16;19.90;99.90
11055;DHT22;5580;50.106;8.702;2023-07-31T04:48:42;19.90;99.90
11055;DHT22;5580;50.106;8.702;2023-07-31T04:51:08;19.90;99.90
11055;DHT22;5580;50.106;8.702;2023-07-31T04:53:35;19.90;99.90
11055;DHT22;5580;50.106;8.702;2023-07-31T04:56:00;19.90;99.90
11055;DHT22;5580;50.106;8.702;2023-07-31T04:58:26;19.90;99.90
11055;DHT22;5580;50.106;8.702;2023-07-31T05:00:52;19.90;99.90
11055;DHT22;5580;50.106;8.702;2023-07-31T05:03:17;19.90;99.90
11055;DHT22;5580;50.106;8.702;2023-07-31T05:05:43;19.90;99.90
11055;DHT22;5580;50.106;8.702;2023-07-31T05:08:08;19.90;99.90
11055;DHT22;5580;50.106;8.702;2023-07-31T05:10:34;19.90;99.90
11055;DHT22;5580;50.106;8.702;2023-07-31T05:12:59;19.80;99.90
11055;DHT22;5580;50.106;8.702;2023-07-31T05:15:26;19.80;99.90
11055;DHT22;5580;50.106;8.702;2023-07-31T05:17:51;19.80;99.90
11055;DHT22;5580;50.106;8.702;2023-07-31T05:20:17;19.80;99.90
11055;DHT22;5580;50.106;8.702;2023-07-31T05:22:43;19.80;99.90
11055;DHT22;5580;50.106;8.702;2023-07-31T05:25:09;19.80;99.90
11055;DHT22;5580;50.106;8.702;2023-07-31T05:27:34;19.80;99.90
11055;DHT22;5580;50.106;8.702;2023-07-31T05:30:00;19.80;99.90
11055;DHT22;5580;50.106;8.702;2023-07-31T05:32:25;19.80;99.90
11055;DHT22;5580;50.106;8.702;2023-07-31T05:34:51;19.80;99.90
11055;DHT22;5580;50.106;8.702;2023-07-31T05:37:18;19.80;99.90
11055;DHT22;5580;50.106;8.702;2023-07-31T05:39:43;19.80;99.90
11055;DHT22;5580;50.106;8.702;2023-07-31T05:42:09;19.80;99.90
11055;DHT22;5580;50.106;8.702;2023-07-31T05:44:34;19.80;99.90
11055;DHT22;5580;50.106;8.702;2023-07-31T05:47:00;19.90;99.90
11055;DHT22;5580;50.106;8.702;2023-07-31T05:49:26;19.90;99.90
11055;DHT22;5580;50.106;8.702;2023-07-31T05:51:51;19.90;99.90
11055;DHT22;5580;50.106;8.702;2023-07-31T05:54:17;19.90;99.90
11055;DHT22;5580;50.106;8.702;2023-07-31T05:56:42;19.90;99.90
11055;DHT22;5580;50.106;8.702;2023-07-31T05:59:09;19.90;99.90
11055;DHT22;5580;50.106;8.702;2023-07-31T06:01:35;19.90;99.90
11055;DHT22;5580;50.106;8.702;2023-07-31T06:04:01;19.90;99.90
11055;DHT22;5580;50.106;8.702;2023-07-31T06:06:28;19.90;99.90
11055;DHT22;5580;50.106;8.702;2023-07-31T06:08:53;19.90;99.90
11055;DHT22;5580;50.106;8.702;2023-07-31T06:11:20;19.90;99.90
11055;DHT22;5580;50.106;8.702;2023-07-31T06:13:46;19.90;99.90
11055;DHT22;5580;50.106;8.702;2023-07-31T06:16:13;19.90;99.90
11055;DHT22;5580;50.106;8.702;2023-07-31T06:18:39;19.90;99.90
11055;DHT22;5580;50.106;8.702;2023-07-31T06:21:05;19.90;99.90
11055;DHT22;5580;50.106;8.702;2023-07-31T06:23:30;19.90;99.90
11055;DHT22;5580;50.106;8.702;2023-07-31T06:25:56;20.00;99.90
11055;DHT22;5580;50.106;8.702;2023-07-31T06:28:30;20.00;99.90
11055;DHT22;5580;50.106;8.702;2023-07-31T06:30:56;20.00;99.90
11055;DHT22;5580;50.106;8.702;2023-07-31T06:33:21;20.00;99.90
11055;DHT22;5580;50.106;8.702;2023-07-31T06:35:47;20.10;99.90
11055;DHT22;5580;50.106;8.702;2023-07-31T06:38:12;20.00;99.90
11055;DHT22;5580;50.106;8.702;2023-07-31T06:40:38;20.00;99.90
11055;DHT22;5580;50.106;8.702;2023-07-31T06:43:04;20.00;99.90
11055;DHT22;5580;50.106;8.702;2023-07-31T06:45:36;20.00;99.90
11055;DHT22;5580;50.106;8.702;2023-07-31T06:48:03;20.10;99.90
11055;DHT22;5580;50.106;8.702;2023-07-31T06:50:29;20.00;99.90
11055;DHT22;5580;50.106;8.702;2023-07-31T06:52:55;20.00;99.90
11055;DHT22;5580;50.106;8.702;2023-07-31T06:55:21;20.00;99.90
11055;DHT22;5580;50.106;8.702;2023-07-31T06:57:49;20.10;99.90
11055;DHT22;5580;50.106;8.702;2023-07-31T07:00:15;20.10;99.90
11055;DHT22;5580;50.106;8.702;2023-07-31T07:02:41;20.10;99.90
11055;DHT22;5580;50.106;8.702;2023-07-31T07:05:07;20.10;99.90
11055;DHT22;5580;50.106;8.702;2023-07-31T07:07:33;20.10;99.90
11055;DHT22;5580;50.106;8.702;2023-07-31T07:09:59;20.10;99.90
11055;DHT22;5580;50.106;8.702;2023-07-31T07:12:26;20.10;99.90
11055;DHT22;5580;50.106;8.702;2023-07-31T07:14:51;20.10;99.90
11055;DHT22;5580;50.106;8.702;2023-07-31T07:17:18;20.10;99.90
11055;DHT22;5580;50.106;8.702;2023-07-31T07:19:44;20.00;99.90
11055;DHT22;5580;50.106;8.702;2023-07-31T07:22:11;20.10;99.90
11055;DHT22;5580;50.106;8.702;2023-07-31T07:24:37;20.10;99.90
11055;DHT22;5580;50.106;8.702;2023-07-31T07:27:03;20.10;99.90
11055;DHT22;5580;50.106;8.702;2023-07-31T07:29:28;20.20;99.90
11055;DHT22;5580;50.106;8.702;2023-07-31T07:31:54;20.20;99.90
11055;DHT22;5580;50.106;8.702;2023-07-31T07:34:22;20.30;99.90
11055;DHT22;5580;50.106;8.702;2023-07-31T07:36:49;20.50;99.90
11055;DHT22;5580;50.106;8.702;2023-07-31T07:39:14;20.60;99.90
11055;DHT22;5580;50.106;8.702;2023-07-31T07:41:40;20.60;99.90
11055;DHT22;5580;50.106;8.702;2023-07-31T07:44:07;20.70;99.90
11055;DHT22;5580;50.106;8.702;2023-07-31T07:46:32;20.70;99.90
11055;DHT22;5580;50.106;8.702;2023-07-31T07:48:58;20.80;99.90
11055;DHT22;5580;50.106;8.702;2023-07-31T07:51:23;20.80;99.90
11055;DHT22;5580;50.106;8.702;2023-07-31T07:53:49;20.80;99.90
11055;DHT22;5580;50.106;8.702;2023-07-31T07:56:14;20.70;99.90
11055;DHT22;5580;50.106;8.702;2023-07-31T07:58:40;20.80;99.90
11055;DHT22;5580;50.106;8.702;2023-07-31T08:01:06;20.80;99.90
11055;DHT22;5580;50.106;8.702;2023-07-31T08:03:31;20.90;99.90
11055;DHT22;5580;50.106;8.702;2023-07-31T08:06:01;20.90;99.90
11055;DHT22;5580;50.106;8.702;2023-07-31T08:08:27;21.00;99.90
11055;DHT22;5580;50.106;8.702;2023-07-31T08:10:53;21.00;99.90
11055;DHT22;5580;50.106;8.702;2023-07-31T08:13:19;21.00;99.90
11055;DHT22;5580;50.106;8.702;2023-07-31T08:15:44;21.00;99.90
11055;DHT22;5580;50.106;8.702;2023-07-31T08:18:10;21.00;99.90
11055;DHT22;5580;50.106;8.702;2023-07-31T08:20:37;20.90;99.90
11055;DHT22;5580;50.106;8.702;2023-07-31T08:23:03;21.00;99.90
11055;DHT22;5580;50.106;8.702;2023-07-31T08:25:28;21.00;99.90
11055;DHT22;5580;50.106;8.702;2023-07-31T08:27:54;20.90;99.90
11055;DHT22;5580;50.106;8.702;2023-07-31T08:30:20;20.90;99.90
11055;DHT22;5580;50.106;8.702;2023-07-31T08:32:45;20.90;99.90
11055;DHT22;5580;50.106;8.702;2023-07-31T08:35:11;20.90;99.90
11055;DHT22;5580;50.106;8.702;2023-07-31T08:37:38;20.90;99.90
11055;DHT22;5580;50.106;8.702;2023-07-31T08:40:04;20.90;99.90
11055;DHT22;5580;50.106;8.702;2023-07-31T08:42:30;21.00;99.90
11055;DHT22;5580;50.106;8.702;2023-07-31T08:44:56;21.00;99.90
11055;DHT22;5580;50.106;8.702;2023-07-31T08:47:22;21.00;99.90
11055;DHT22;5580;50.106;8.702;2023-07-31T08:49:49;21.00;99.90
11055;DHT22;5580;50.106;8.702;2023-07-31T08:52:15;21.00;99.90
11055;DHT22;5580;50.106;8.702;2023-07-31T08:54:41;21.10;99.90
11055;DHT22;5580;50.106;8.702;2023-07-31T08:57:07;21.20;99.90
11055;DHT22;5580;50.106;8.702;2023-07-31T08:59:34;21.30;99.90
11055;DHT22;5580;50.106;8.702;2023-07-31T09:02:08;21.30;99.90
11055;DHT22;5580;50.106;8.702;2023-07-31T09:04:34;21.30;99.90
11055;DHT22;5580;50.106;8.702;2023-07-31T09:07:01;21.30;99.90
11055;DHT22;5580;50.106;8.702;2023-07-31T09:09:30;21.30;99.90
11055;DHT22;5580;50.106;8.702;2023-07-31T09:11:56;21.30;99.90
11055;DHT22;5580;50.106;8.702;2023-07-31T09:14:24;21.30;99.90
11055;DHT22;5580;50.106;8.702;2023-07-31T09:16:56;21.30;99.90
11055;DHT22;5580;50.106;8.702;2023-07-31T09:19:34;21.30;99.90
11055;DHT22;5580;50.106;8.702;2023-07-31T09:22:02;21.40;99.90
11055;DHT22;5580;50.106;8.702;2023-07-31T09:24:29;21.40;99.90
11055;DHT22;5580;50.106;8.702;2023-07-31T09:26:56;21.40;99.90
11055;DHT22;5580;50.106;8.702;2023-07-31T09:29:24;21.50;99.90
11055;DHT22;5580;50.106;8.702;2023-07-31T09:31:50;21.50;99.90
11055;DHT22;5580;50.106;8.702;2023-07-31T09:34:16;21.60;99.90
11055;DHT22;5580;50.106;8.702;2023-07-31T09:36:51;21.60;99.90
11055;DHT22;5580;50.106;8.702;2023-07-31T09:39:18;21.60;99.90
11055;DHT22;5580;50.106;8.702;2023-07-31T09:41:47;21.60;99.90
11055;DHT22;5580;50.106;8.702;2023-07-31T09:44:13;21.60;99.90
11055;DHT22;5580;50.106;8.702;2023-07-31T09:46:39;21.60;99.90
11055;DHT22;5580;50.106;8.702;2023-07-31T09:51:35;21.60;99.90
11055;DHT22;5580;50.106;8.702;2023-07-31T09:54:14;21.50;99.90
11055;DHT22;5580;50.106;8.702;2023-07-31T09:56:45;21.60;99.90
11055;DHT22;5580;50.106;8.702;2023-07-31T09:59:12;21.50;99.90
11055;DHT22;5580;50.106;8.702;2023-07-31T10:01:40;21.50;99.90
11055;DHT22;5580;50.106;8.702;2023-07-31T10:04:08;21.50;99.90
11055;DHT22;5580;50.106;8.702;2023-07-31T10:06:35;21.50;99.90
11055;DHT22;5580;50.106;8.702;2023-07-31T10:09:03;21.50;99.90
11055;DHT22;5580;50.106;8.702;2023-07-31T10:11:29;21.50;99.90
11055;DHT22;5580;50.106;8.702;2023-07-31T10:13:56;21.50;99.90
11055;DHT22;5580;50.106;8.702;2023-07-31T10:16:22;21.50;99.90
11055;DHT22;5580;50.106;8.702;2023-07-31T10:18:49;21.60;99.90
11055;DHT22;5580;50.106;8.702;2023-07-31T10:21:15;21.70;99.90
11055;DHT22;5580;50.106;8.702;2023-07-31T10:23:42;21.70;99.90
11055;DHT22;5580;50.106;8.702;2023-07-31T10:26:08;21.70;99.90
11055;DHT22;5580;50.106;8.702;2023-07-31T10:28:35;21.70;99.90
11055;DHT22;5580;50.106;8.702;2023-07-31T10:31:03;21.70;99.90
11055;DHT22;5580;50.106;8.702;2023-07-31T10:33:29;21.80;99.90
11055;DHT22;5580;50.106;8.702;2023-07-31T10:36:18;21.80;99.90
11055;DHT22;5580;50.106;8.702;2023-07-31T10:38:44;21.90;99.90
11055;DHT22;5580;50.106;8.702;2023-07-31T10:41:10;21.80;99.90
11055;DHT22;5580;50.106;8.702;2023-07-31T10:43:39;21.90;99.90
11055;DHT22;5580;50.106;8.702;2023-07-31T10:46:09;21.80;99.90
11055;DHT22;5580;50.106;8.702;2023-07-31T10:48:37;21.90;99.90
11055;DHT22;5580;50.106;8.702;2023-07-31T10:51:08;21.90;99.90
11055;DHT22;5580;50.106;8.702;2023-07-31T10:53:34;21.90;99.90
11055;DHT22;5580;50.106;8.702;2023-07-31T10:56:03;21.90;99.90
11055;DHT22;5580;50.106;8.702;2023-07-31T10:58:30;22.00;99.90
11055;DHT22;5580;50.106;8.702;2023-07-31T11:00:59;22.00;99.90
11055;DHT22;5580;50.106;8.702;2023-07-31T11:03:45;22.10;99.90
11055;DHT22;5580;50.106;8.702;2023-07-31T11:06:15;22.10;99.90
11055;DHT22;5580;50.106;8.702;2023-07-31T11:08:46;22.10;99.90
11055;DHT22;5580;50.106;8.702;2023-07-31T11:11:14;22.10;99.90
11055;DHT22;5580;50.106;8.702;2023-07-31T11:16:08;22.20;99.90
11055;DHT22;5580;50.106;8.702;2023-07-31T11:18:34;22.30;99.90
11055;DHT22;5580;50.106;8.702;2023-07-31T11:21:00;22.30;99.90
11055;DHT22;5580;50.106;8.702;2023-07-31T11:23:25;22.30;99.90
11055;DHT22;5580;50.106;8.702;2023-07-31T11:25:51;22.30;99.90
11055;DHT22;5580;50.106;8.702;2023-07-31T11:28:18;22.30;99.90
11055;DHT22;5580;50.106;8.702;2023-07-31T11:30:45;22.30;99.90
11055;DHT22;5580;50.106;8.702;2023-07-31T11:33:12;22.30;99.90
11055;DHT22;5580;50.106;8.702;2023-07-31T11:35:46;22.30;99.90
11055;DHT22;5580;50.106;8.702;2023-07-31T11:38:20;22.30;99.90
11055;DHT22;5580;50.106;8.702;2023-07-31T11:40:47;22.30;99.90
11055;DHT22;5580;50.106;8.702;2023-07-31T11:43:13;22.40;99.90
11055;DHT22;5580;50.106;8.702;2023-07-31T11:45:46;22.40;99.90
11055;DHT22;5580;50.106;8.702;2023-07-31T11:48:25;22.30;99.90
11055;DHT22;5580;50.106;8.702;2023-07-31T11:50:54;22.40;99.90
11055;DHT22;5580;50.106;8.702;2023-07-31T11:56:09;22.40;99.90
11055;DHT22;5580;50.106;8.702;2023-07-31T11:58:37;22.40;99.90
11055;DHT22;5580;50.106;8.702;2023-07-31T12:01:04;22.40;99.90
11055;DHT22;5580;50.106;8.702;2023-07-31T12:03:31;22.40;99.90
11055;DHT22;5580;50.106;8.702;2023-07-31T12:05:58;22.40;99.90
11055;DHT22;5580;50.106;8.702;2023-07-31T12:08:24;22.30;99.90
11055;DHT22;5580;50.106;8.702;2023-07-31T12:10:51;22.40;99.90
11055;DHT22;5580;50.106;8.702;2023-07-31T12:13:22;22.40;99.90
11055;DHT22;5580;50.106;8.702;2023-07-31T12:15:48;22.50;99.90
11055;DHT22;5580;50.106;8.702;2023-07-31T12:18:15;22.50;99.90
11055;DHT22;5580;50.106;8.702;2023-07-31T12:20:49;22.40;99.90
11055;DHT22;5580;50.106;8.702;2023-07-31T12:23:20;22.50;99.90
11055;DHT22;5580;50.106;8.702;2023-07-31T12:26:14;22.50;99.90
11055;DHT22;5580;50.106;8.702;2023-07-31T12:28:47;22.50;99.90
11055;DHT22;5580;50.106;8.702;2023-07-31T12:31:18;22.50;99.90
11055;DHT22;5580;50.106;8.702;2023-07-31T12:33:45;22.50;99.90
11055;DHT22;5580;50.106;8.702;2023-07-31T12:36:13;22.50;99.90
11055;DHT22;5580;50.106;8.702;2023-07-31T12:38:40;22.50;99.90
11055;DHT22;5580;50.106;8.702;2023-07-31T12:41:06;22.60;99.90
11055;DHT22;5580;50.106;8.702;2023-07-31T12:43:35;22.50;99.90
11055;DHT22;5580;50.106;8.702;2023-07-31T12:46:00;22.50;99.90
11055;DHT22;5580;50.106;8.702;2023-07-31T12:48:26;22.50;99.90
11055;DHT22;5580;50.106;8.702;2023-07-31T12:50:51;22.50;99.90
11055;DHT22;5580;50.106;8.702;2023-07-31T12:53:17;22.50;99.90
11055;DHT22;5580;50.106;8.702;2023-07-31T12:55:43;22.50;99.90
11055;DHT22;5580;50.106;8.702;2023-07-31T12:58:08;22.50;99.90
11055;DHT22;5580;50.106;8.702;2023-07-31T13:00:34;22.50;99.90
11055;DHT22;5580;50.106;8.702;2023-07-31T13:03:00;22.60;99.90
11055;DHT22;5580;50.106;8.702;2023-07-31T13:05:27;22.60;99.90
11055;DHT22;5580;50.106;8.702;2023-07-31T13:07:52;22.70;99.90
11055;DHT22;5580;50.106;8.702;2023-07-31T13:10:18;22.80;99.90
11055;DHT22;5580;50.106;8.702;2023-07-31T13:12:44;22.90;99.90
11055;DHT22;5580;50.106;8.702;2023-07-31T13:15:10;23.00;99.90
11055;DHT22;5580;50.106;8.702;2023-07-31T13:17:36;23.00;99.90
11055;DHT22;5580;50.106;8.702;2023-07-31T13:20:02;23.10;99.90
11055;DHT22;5580;50.106;8.702;2023-07-31T13:22:29;23.10;99.90
11055;DHT22;5580;50.106;8.702;2023-07-31T13:24:54;23.10;99.90
11055;DHT22;5580;50.106;8.702;2023-07-31T13:27:20;23.10;99.90
11055;DHT22;5580;50.106;8.702;2023-07-31T13:29:47;23.10;99.90
11055;DHT22;5580;50.106;8.702;2023-07-31T13:32:13;23.10;99.90
11055;DHT22;5580;50.106;8.702;2023-07-31T13:34:39;23.10;99.90
11055;DHT22;5580;50.106;8.702;2023-07-31T13:37:05;23.10;99.90
11055;DHT22;5580;50.106;8.702;2023-07-31T13:39:31;23.10;99.90
11055;DHT22;5580;50.106;8.702;2023-07-31T13:41:58;23.10;99.90
11055;DHT22;5580;50.106;8.702;2023-07-31T13:44:24;23.10;99.90
11055;DHT22;5580;50.106;8.702;2023-07-31T13:46:49;23.10;99.90
11055;DHT22;5580;50.106;8.702;2023-07-31T13:49:15;23.10;99.90
11055;DHT22;5580;50.106;8.702;2023-07-31T13:51:40;23.10;99.90
11055;DHT22;5580;50.106;8.702;2023-07-31T13:54:06;23.10;99.90
11055;DHT22;5580;50.106;8.702;2023-07-31T13:56:32;23.10;99.90
11055;DHT22;5580;50.106;8.702;2023-07-31T13:58:58;23.10;99.90
11055;DHT22;5580;50.106;8.702;2023-07-31T14:01:23;23.10;99.90
11055;DHT22;5580;50.106;8.702;2023-07-31T14:03:49;23.10;99.90
11055;DHT22;5580;50.106;8.702;2023-07-31T14:06:15;23.10;99.90
11055;DHT22;5580;50.106;8.702;2023-07-31T14:08:40;23.10;99.90
11055;DHT22;5580;50.106;8.702;2023-07-31T14:11:06;23.10;99.90
11055;DHT22;5580;50.106;8.702;2023-07-31T14:13:31;23.10;99.90
11055;DHT22;5580;50.106;8.702;2023-07-31T14:15:57;23.10;99.90
11055;DHT22;5580;50.106;8.702;2023-07-31T14:18:23;23.10;99.90
11055;DHT22;5580;50.106;8.702;2023-07-31T14:20:48;23.00;99.90
11055;DHT22;5580;50.106;8.702;2023-07-31T14:23:14;23.00;99.90
11055;DHT22;5580;50.106;8.702;2023-07-31T14:25:41;23.00;99.90
11055;DHT22;5580;50.106;8.702;2023-07-31T14:28:06;23.00;99.90
11055;DHT22;5580;50.106;8.702;2023-07-31T14:30:32;22.90;99.90
11055;DHT22;5580;50.106;8.702;2023-07-31T14:32:57;22.90;99.90
11055;DHT22;5580;50.106;8.702;2023-07-31T14:35:23;22.90;99.90
11055;DHT22;5580;50.106;8.702;2023-07-31T14:37:48;22.90;99.90
11055;DHT22;5580;50.106;8.702;2023-07-31T14:40:14;22.80;99.90
11055;DHT22;5580;50.106;8.702;2023-07-31T14:42:40;22.80;99.90
11055;DHT22;5580;50.106;8.702;2023-07-31T14:45:06;22.80;99.90
11055;DHT22;5580;50.106;8.702;2023-07-31T14:47:32;22.80;99.90
11055;DHT22;5580;50.106;8.702;2023-07-31T14:49:59;22.80;99.90
11055;DHT22;5580;50.106;8.702;2023-07-31T14:52:25;22.80;99.90
11055;DHT22;5580;50.106;8.702;2023-07-31T14:54:50;22.80;99.90
11055;DHT22;5580;50.106;8.702;2023-07-31T14:57:16;22.80;99.90
11055;DHT22;5580;50.106;8.702;2023-07-31T14:59:42;22.80;99.90
11055;DHT22;5580;50.106;8.702;2023-07-31T15:02:09;22.80;99.90
11055;DHT22;5580;50.106;8.702;2023-07-31T15:04:35;22.80;99.90
11055;DHT22;5580;50.106;8.702;2023-07-31T15:07:00;22.80;99.90
11055;DHT22;5580;50.106;8.702;2023-07-31T15:09:26;22.80;99.90
11055;DHT22;5580;50.106;8.702;2023-07-31T15:11:51;22.90;99.90
11055;DHT22;5580;50.106;8.702;2023-07-31T15:14:17;22.80;99.90
11055;DHT22;5580;50.106;8.702;2023-07-31T15:16:42;22.80;99.90
11055;DHT22;5580;50.106;8.702;2023-07-31T15:19:08;22.80;99.90
11055;DHT22;5580;50.106;8.702;2023-07-31T15:21:36;22.80;99.90
11055;DHT22;5580;50.106;8.702;2023-07-31T15:24:02;22.80;99.90
11055;DHT22;5580;50.106;8.702;2023-07-31T15:26:28;22.80;99.90
11055;DHT22;5580;50.106;8.702;2023-07-31T15:29:01;22.70;99.90
11055;DHT22;5580;50.106;8.702;2023-07-31T15:31:28;22.70;99.90
11055;DHT22;5580;50.106;8.702;2023-07-31T15:33:53;22.70;99.90
11055;DHT22;5580;50.106;8.702;2023-07-31T15:36:19;22.60;99.90
11055;DHT22;5580;50.106;8.702;2023-07-31T15:38:44;22.70;99.90
11055;DHT22;5580;50.106;8.702;2023-07-31T15:41:11;22.70;99.90
11055;DHT22;5580;50.106;8.702;2023-07-31T15:43:37;22.60;99.90
11055;DHT22;5580;50.106;8.702;2023-07-31T15:46:02;22.60;99.90
11055;DHT22;5580;50.106;8.702;2023-07-31T15:48:28;22.60;99.90
11055;DHT22;5580;50.106;8.702;2023-07-31T15:50:54;22.60;99.90
11055;DHT22;5580;50.106;8.702;2023-07-31T15:53:19;22.50;99.90
11055;DHT22;5580;50.106;8.702;2023-07-31T15:55:45;22.50;99.90